sensor_id;sensor_type;location;lat;lon;timestamp;P1;durP1;ratioP1;P2;durP2;ratioP2
48401;SDS011;34201;52.438;16.744;2022-09-28T00:00:26;0.10;;;0.10;;
48401;SDS011;34201;52.438;16.744;2022-09-28T00:02:55;0.20;;;0.20;;
48401;SDS011;34201;52.438;16.744;2022-09-28T00:05:21;0.10;;;0.10;;
48401;SDS011;34201;52.438;16.744;2022-09-28T00:07:48;0.10;;;0.10;;
48401;SDS011;34201;52.438;16.744;2022-09-28T00:10:13;0.20;;;0.20;;
48401;SDS011;34201;52.438;16.744;2022-09-28T00:12:40;0.20;;;0.20;;
48401;SDS011;34201;52.438;16.744;2022-09-28T00:15:06;0.20;;;0.20;;
48401;SDS011;34201;52.438;16.744;2022-09-28T00:17:32;0.20;;;0.20;;
48401;SDS011;34201;52.438;16.744;2022-09-28T00:19:57;0.20;;;0.20;;
48401;SDS011;34201;52.438;16.744;2022-09-28T00:22:23;0.20;;;0.20;;
48401;SDS011;34201;52.438;16.744;2022-09-28T00:24:48;0.20;;;0.20;;
48401;SDS011;34201;52.438;16.744;2022-09-28T00:27:13;0.20;;;0.20;;
48401;SDS011;34201;52.438;16.744;2022-09-28T00:29:39;0.20;;;0.20;;
48401;SDS011;34201;52.438;16.744;2022-09-28T00:32:10;0.20;;;0.20;;
48401;SDS011;34201;52.438;16.744;2022-09-28T00:34:41;0.20;;;0.20;;
48401;SDS011;34201;52.438;16.744;2022-09-28T00:37:09;0.20;;;0.20;;
48401;SDS011;34201;52.438;16.744;2022-09-28T00:39:36;0.20;;;0.20;;
48401;SDS011;34201;52.438;16.744;2022-09-28T00:42:02;0.17;;;0.17;;
48401;SDS011;34201;52.438;16.744;2022-09-28T00:44:42;0.30;;;0.30;;
48401;SDS011;34201;52.438;16.744;2022-09-28T00:54:57;0.38;;;0.38;;
48401;SDS011;34201;52.438;16.744;2022-09-28T00:57:25;0.30;;;0.30;;
48401;SDS011;34201;52.438;16.744;2022-09-28T00:59:52;0.22;;;0.22;;
48401;SDS011;34201;52.438;16.744;2022-09-28T01:02:18;0.28;;;0.28;;
48401;SDS011;34201;52.438;16.744;2022-09-28T01:04:45;0.20;;;0.20;;
48401;SDS011;34201;52.438;16.744;2022-09-28T01:07:11;0.25;;;0.25;;
48401;SDS011;34201;52.438;16.744;2022-09-28T01:09:37;0.10;;;0.10;;
48401;SDS011;34201;52.438;16.744;2022-09-28T01:12:04;0.30;;;0.30;;
48401;SDS011;34201;52.438;16.744;2022-09-28T01:14:30;0.20;;;0.20;;
48401;SDS011;34201;52.438;16.744;2022-09-28T01:16:58;0.20;;;0.20;;
48401;SDS011;34201;52.438;16.744;2022-09-28T01:22:44;0.20;;;0.20;;
48401;SDS011;34201;52.438;16.744;2022-09-28T01:25:38;0.20;;;0.20;;
48401;SDS011;34201;52.438;16.744;2022-09-28T01:28:11;0.20;;;0.20;;
48401;SDS011;34201;52.438;16.744;2022-09-28T01:33:27;0.20;;;0.20;;
48401;SDS011;34201;52.438;16.744;2022-09-28T01:39:04;0.20;;;0.20;;
48401;SDS011;34201;52.438;16.744;2022-09-28T01:41:33;0.30;;;0.30;;
48401;SDS011;34201;52.438;16.744;2022-09-28T01:44:04;0.30;;;0.30;;
48401;SDS011;34201;52.438;16.744;2022-09-28T01:46:33;0.20;;;0.20;;
48401;SDS011;34201;52.438;16.744;2022-09-28T01:49:18;0.20;;;0.20;;
48401;SDS011;34201;52.438;16.744;2022-09-28T01:54:25;0.20;;;0.20;;
48401;SDS011;34201;52.438;16.744;2022-09-28T01:56:59;0.30;;;0.30;;
48401;SDS011;34201;52.438;16.744;2022-09-28T01:59:32;0.20;;;0.20;;
48401;SDS011;34201;52.438;16.744;2022-09-28T02:02:02;0.20;;;0.20;;
48401;SDS011;34201;52.438;16.744;2022-09-28T02:04:31;0.20;;;0.20;;
48401;SDS011;34201;52.438;16.744;2022-09-28T02:07:02;0.22;;;0.22;;
48401;SDS011;34201;52.438;16.744;2022-09-28T02:09:35;0.25;;;0.25;;
48401;SDS011;34201;52.438;16.744;2022-09-28T02:12:15;0.32;;;0.32;;
48401;SDS011;34201;52.438;16.744;2022-09-28T02:14:45;0.30;;;0.30;;
48401;SDS011;34201;52.438;16.744;2022-09-28T02:17:13;0.20;;;0.20;;
48401;SDS011;34201;52.438;16.744;2022-09-28T02:19:40;0.20;;;0.20;;
48401;SDS011;34201;52.438;16.744;2022-09-28T02:27:38;0.30;;;0.30;;
48401;SDS011;34201;52.438;16.744;2022-09-28T02:30:07;0.20;;;0.20;;
48401;SDS011;34201;52.438;16.744;2022-09-28T02:32:34;0.20;;;0.20;;
48401;SDS011;34201;52.438;16.744;2022-09-28T02:35:06;0.30;;;0.30;;
48401;SDS011;34201;52.438;16.744;2022-09-28T02:37:36;0.20;;;0.20;;
48401;SDS011;34201;52.438;16.744;2022-09-28T02:40:02;0.20;;;0.20;;
48401;SDS011;34201;52.438;16.744;2022-09-28T02:42:38;0.10;;;0.10;;
48401;SDS011;34201;52.438;16.744;2022-09-28T02:53:35;0.20;;;0.20;;
48401;SDS011;34201;52.438;16.744;2022-09-28T03:02:02;0.20;;;0.20;;
48401;SDS011;34201;52.438;16.744;2022-09-28T03:04:41;0.38;;;0.38;;
48401;SDS011;34201;52.438;16.744;2022-09-28T03:13:28;0.10;;;0.10;;
48401;SDS011;34201;52.438;16.744;2022-09-28T03:16:07;0.20;;;0.20;;
48401;SDS011;34201;52.438;16.744;2022-09-28T03:18:42;0.28;;;0.28;;
48401;SDS011;34201;52.438;16.744;2022-09-28T03:21:11;0.20;;;0.20;;
48401;SDS011;34201;52.438;16.744;2022-09-28T03:23:38;0.10;;;0.10;;
48401;SDS011;34201;52.438;16.744;2022-09-28T03:26:03;0.15;;;0.15;;
48401;SDS011;34201;52.438;16.744;2022-09-28T03:28:29;0.30;;;0.30;;
48401;SDS011;34201;52.438;16.744;2022-09-28T03:30:54;0.20;;;0.20;;
48401;SDS011;34201;52.438;16.744;2022-09-28T03:33:20;0.28;;;0.28;;
48401;SDS011;34201;52.438;16.744;2022-09-28T03:35:46;0.20;;;0.20;;
48401;SDS011;34201;52.438;16.744;2022-09-28T03:38:12;0.20;;;0.20;;
48401;SDS011;34201;52.438;16.744;2022-09-28T03:40:38;0.20;;;0.20;;
48401;SDS011;34201;52.438;16.744;2022-09-28T03:43:04;0.20;;;0.20;;
48401;SDS011;34201;52.438;16.744;2022-09-28T03:45:29;0.20;;;0.20;;
48401;SDS011;34201;52.438;16.744;2022-09-28T03:47:54;0.28;;;0.28;;
48401;SDS011;34201;52.438;16.744;2022-09-28T03:50:20;0.30;;;0.30;;
48401;SDS011;34201;52.438;16.744;2022-09-28T03:52:45;0.20;;;0.20;;
48401;SDS011;34201;52.438;16.744;2022-09-28T03:55:10;0.20;;;0.20;;
48401;SDS011;34201;52.438;16.744;2022-09-28T03:57:36;0.20;;;0.20;;
48401;SDS011;34201;52.438;16.744;2022-09-28T04:00:02;0.20;;;0.20;;
48401;SDS011;34201;52.438;16.744;2022-09-28T04:02:29;0.20;;;0.20;;
48401;SDS011;34201;52.438;16.744;2022-09-28T04:04:54;0.30;;;0.30;;
48401;SDS011;34201;52.438;16.744;2022-09-28T04:07:20;0.17;;;0.17;;
48401;SDS011;34201;52.438;16.744;2022-09-28T04:09:45;0.30;;;0.30;;
48401;SDS011;34201;52.438;16.744;2022-09-28T04:12:11;0.20;;;0.20;;
48401;SDS011;34201;52.438;16.744;2022-09-28T04:14:36;0.25;;;0.25;;
48401;SDS011;34201;52.438;16.744;2022-09-28T04:17:01;0.20;;;0.20;;
48401;SDS011;34201;52.438;16.744;2022-09-28T04:19:27;0.20;;;0.20;;
48401;SDS011;34201;52.438;16.744;2022-09-28T04:21:52;0.10;;;0.10;;
48401;SDS011;34201;52.438;16.744;2022-09-28T04:24:17;0.20;;;0.20;;
48401;SDS011;34201;52.438;16.744;2022-09-28T04:26:44;0.20;;;0.20;;
48401;SDS011;34201;52.438;16.744;2022-09-28T04:29:09;0.20;;;0.20;;
48401;SDS011;34201;52.438;16.744;2022-09-28T04:34:08;0.20;;;0.20;;
48401;SDS011;34201;52.438;16.744;2022-09-28T04:36:34;0.22;;;0.22;;
48401;SDS011;34201;52.438;16.744;2022-09-28T04:39:00;0.20;;;0.20;;
48401;SDS011;34201;52.438;16.744;2022-09-28T04:41:25;0.20;;;0.20;;
48401;SDS011;34201;52.438;16.744;2022-09-28T04:43:51;0.20;;;0.20;;
48401;SDS011;34201;52.438;16.744;2022-09-28T04:46:16;0.20;;;0.20;;
48401;SDS011;34201;52.438;16.744;2022-09-28T04:48:42;0.40;;;0.40;;
48401;SDS011;34201;52.438;16.744;2022-09-28T04:51:08;0.20;;;0.20;;
48401;SDS011;34201;52.438;16.744;2022-09-28T04:53:33;0.20;;;0.20;;
48401;SDS011;34201;52.438;16.744;2022-09-28T04:56:09;0.17;;;0.17;;
48401;SDS011;34201;52.438;16.744;2022-09-28T04:58:36;0.10;;;0.10;;
48401;SDS011;34201;52.438;16.744;2022-09-28T05:01:03;0.20;;;0.20;;
48401;SDS011;34201;52.438;16.744;2022-09-28T05:03:31;0.20;;;0.20;;
48401;SDS011;34201;52.438;16.744;2022-09-28T05:05:57;0.20;;;0.20;;
48401;SDS011;34201;52.438;16.744;2022-09-28T05:08:22;0.30;;;0.30;;
48401;SDS011;34201;52.438;16.744;2022-09-28T05:10:48;0.28;;;0.28;;
48401;SDS011;34201;52.438;16.744;2022-09-28T05:13:20;0.20;;;0.20;;
48401;SDS011;34201;52.438;16.744;2022-09-28T05:15:46;0.20;;;0.20;;
48401;SDS011;34201;52.438;16.744;2022-09-28T05:18:11;0.10;;;0.10;;
48401;SDS011;34201;52.438;16.744;2022-09-28T05:20:40;0.20;;;0.20;;
48401;SDS011;34201;52.438;16.744;2022-09-28T05:23:08;0.30;;;0.30;;
48401;SDS011;34201;52.438;16.744;2022-09-28T05:25:34;0.13;;;0.13;;
48401;SDS011;34201;52.438;16.744;2022-09-28T05:27:59;0.20;;;0.20;;
48401;SDS011;34201;52.438;16.744;2022-09-28T05:30:26;0.20;;;0.20;;
48401;SDS011;34201;52.438;16.744;2022-09-28T05:32:51;0.20;;;0.20;;
48401;SDS011;34201;52.438;16.744;2022-09-28T05:35:17;0.20;;;0.20;;
48401;SDS011;34201;52.438;16.744;2022-09-28T05:37:43;0.20;;;0.20;;
48401;SDS011;34201;52.438;16.744;2022-09-28T05:40:08;0.10;;;0.10;;
48401;SDS011;34201;52.438;16.744;2022-09-28T05:42:34;0.20;;;0.20;;
48401;SDS011;34201;52.438;16.744;2022-09-28T05:44:59;0.20;;;0.20;;
48401;SDS011;34201;52.438;16.744;2022-09-28T05:47:25;0.20;;;0.20;;
48401;SDS011;34201;52.438;16.744;2022-09-28T05:49:51;0.20;;;0.20;;
48401;SDS011;34201;52.438;16.744;2022-09-28T05:52:17;0.22;;;0.22;;
48401;SDS011;34201;52.438;16.744;2022-09-28T05:54:43;0.20;;;0.20;;
48401;SDS011;34201;52.438;16.744;2022-09-28T05:57:08;0.30;;;0.30;;
48401;SDS011;34201;52.438;16.744;2022-09-28T05:59:33;0.30;;;0.30;;
48401;SDS011;34201;52.438;16.744;2022-09-28T06:02:00;0.30;;;0.30;;
48401;SDS011;34201;52.438;16.744;2022-09-28T06:04:25;0.20;;;0.20;;
48401;SDS011;34201;52.438;16.744;2022-09-28T06:06:51;0.10;;;0.10;;
48401;SDS011;34201;52.438;16.744;2022-09-28T06:09:16;0.20;;;0.20;;
48401;SDS011;34201;52.438;16.744;2022-09-28T06:11:41;0.10;;;0.10;;
48401;SDS011;34201;52.438;16.744;2022-09-28T06:14:06;0.30;;;0.30;;
48401;SDS011;34201;52.438;16.744;2022-09-28T06:16:32;0.17;;;0.17;;
48401;SDS011;34201;52.438;16.744;2022-09-28T06:18:59;0.25;;;0.25;;
48401;SDS011;34201;52.438;16.744;2022-09-28T06:21:25;0.30;;;0.30;;
48401;SDS011;34201;52.438;16.744;2022-09-28T06:23:50;0.20;;;0.20;;
48401;SDS011;34201;52.438;16.744;2022-09-28T06:26:15;0.20;;;0.20;;
48401;SDS011;34201;52.438;16.744;2022-09-28T06:28:41;0.30;;;0.30;;
48401;SDS011;34201;52.438;16.744;2022-09-28T06:31:07;0.20;;;0.20;;
48401;SDS011;34201;52.438;16.744;2022-09-28T06:33:32;0.17;;;0.17;;
48401;SDS011;34201;52.438;16.744;2022-09-28T06:35:59;0.15;;;0.15;;
48401;SDS011;34201;52.438;16.744;2022-09-28T06:38:25;0.25;;;0.25;;
48401;SDS011;34201;52.438;16.744;2022-09-28T06:40:50;0.20;;;0.20;;
48401;SDS011;34201;52.438;16.744;2022-09-28T06:43:15;0.20;;;0.20;;
48401;SDS011;34201;52.438;16.744;2022-09-28T06:45:41;0.25;;;0.25;;
48401;SDS011;34201;52.438;16.744;2022-09-28T06:48:07;0.20;;;0.20;;
48401;SDS011;34201;52.438;16.744;2022-09-28T06:50:43;0.30;;;0.30;;
48401;SDS011;34201;52.438;16.744;2022-09-28T06:53:10;0.20;;;0.20;;
48401;SDS011;34201;52.438;16.744;2022-09-28T06:55:42;0.22;;;0.22;;
48401;SDS011;34201;52.438;16.744;2022-09-28T06:58:14;0.20;;;0.20;;
48401;SDS011;34201;52.438;16.744;2022-09-28T07:00:42;0.20;;;0.20;;
48401;SDS011;34201;52.438;16.744;2022-09-28T07:03:12;0.20;;;0.20;;
48401;SDS011;34201;52.438;16.744;2022-09-28T07:05:40;0.20;;;0.20;;
48401;SDS011;34201;52.438;16.744;2022-09-28T07:08:08;0.20;;;0.20;;
48401;SDS011;34201;52.438;16.744;2022-09-28T07:10:33;0.20;;;0.20;;
48401;SDS011;34201;52.438;16.744;2022-09-28T07:13:01;0.30;;;0.30;;
48401;SDS011;34201;52.438;16.744;2022-09-28T07:15:28;0.28;;;0.28;;
48401;SDS011;34201;52.438;16.744;2022-09-28T07:17:57;0.20;;;0.20;;
48401;SDS011;34201;52.438;16.744;2022-09-28T07:20:23;0.20;;;0.20;;
48401;SDS011;34201;52.438;16.744;2022-09-28T07:22:53;0.20;;;0.20;;
48401;SDS011;34201;52.438;16.744;2022-09-28T07:25:19;0.20;;;0.20;;
48401;SDS011;34201;52.438;16.744;2022-09-28T07:27:45;0.20;;;0.20;;
48401;SDS011;34201;52.438;16.744;2022-09-28T07:30:13;0.20;;;0.20;;
48401;SDS011;34201;52.438;16.744;2022-09-28T07:32:39;0.20;;;0.20;;
48401;SDS011;34201;52.438;16.744;2022-09-28T07:35:05;0.17;;;0.17;;
48401;SDS011;34201;52.438;16.744;2022-09-28T07:37:35;0.20;;;0.20;;
48401;SDS011;34201;52.438;16.744;2022-09-28T07:40:02;0.30;;;0.30;;
48401;SDS011;34201;52.438;16.744;2022-09-28T07:42:50;0.10;;;0.10;;
48401;SDS011;34201;52.438;16.744;2022-09-28T07:45:16;0.20;;;0.20;;
48401;SDS011;34201;52.438;16.744;2022-09-28T07:47:42;0.20;;;0.20;;
48401;SDS011;34201;52.438;16.744;2022-09-28T07:50:07;0.20;;;0.20;;
48401;SDS011;34201;52.438;16.744;2022-09-28T07:52:33;0.20;;;0.20;;
48401;SDS011;34201;52.438;16.744;2022-09-28T07:55:00;0.20;;;0.20;;
48401;SDS011;34201;52.438;16.744;2022-09-28T07:57:26;0.20;;;0.20;;
48401;SDS011;34201;52.438;16.744;2022-09-28T07:59:58;0.20;;;0.20;;
48401;SDS011;34201;52.438;16.744;2022-09-28T08:02:25;0.20;;;0.20;;
48401;SDS011;34201;52.438;16.744;2022-09-28T08:04:50;0.20;;;0.20;;
48401;SDS011;34201;52.438;16.744;2022-09-28T08:07:22;0.10;;;0.10;;
48401;SDS011;34201;52.438;16.744;2022-09-28T08:09:49;0.10;;;0.10;;
48401;SDS011;34201;52.438;16.744;2022-09-28T08:12:15;0.10;;;0.10;;
48401;SDS011;34201;52.438;16.744;2022-09-28T08:14:42;0.10;;;0.10;;
48401;SDS011;34201;52.438;16.744;2022-09-28T08:17:07;0.13;;;0.13;;
48401;SDS011;34201;52.438;16.744;2022-09-28T08:19:34;0.15;;;0.15;;
48401;SDS011;34201;52.438;16.744;2022-09-28T08:22:18;0.13;;;0.13;;
48401;SDS011;34201;52.438;16.744;2022-09-28T08:24:44;0.17;;;0.17;;
48401;SDS011;34201;52.438;16.744;2022-09-28T08:27:11;0.10;;;0.10;;
48401;SDS011;34201;52.438;16.744;2022-09-28T08:29:37;0.13;;;0.13;;
48401;SDS011;34201;52.438;16.744;2022-09-28T08:32:09;0.10;;;0.10;;
48401;SDS011;34201;52.438;16.744;2022-09-28T08:34:35;0.10;;;0.10;;
48401;SDS011;34201;52.438;16.744;2022-09-28T08:37:02;0.10;;;0.10;;
48401;SDS011;34201;52.438;16.744;2022-09-28T08:39:28;0.10;;;0.10;;
48401;SDS011;34201;52.438;16.744;2022-09-28T08:44:53;0.10;;;0.10;;
48401;SDS011;34201;52.438;16.744;2022-09-28T08:48:24;0.10;;;0.10;;
48401;SDS011;34201;52.438;16.744;2022-09-28T08:56:27;0.10;;;0.10;;
48401;SDS011;34201;52.438;16.744;2022-09-28T08:58:55;0.10;;;0.10;;
48401;SDS011;34201;52.438;16.744;2022-09-28T09:02:12;0.08;;;0.08;;
48401;SDS011;34201;52.438;16.744;2022-09-28T09:04:21;0.00;;;0.00;;
48401;SDS011;34201;52.438;16.744;2022-09-28T09:09:46;0.00;;;0.00;;
48401;SDS011;34201;52.438;16.744;2022-09-28T09:12:27;0.00;;;0.00;;
48401;SDS011;34201;52.438;16.744;2022-09-28T09:15:19;0.00;;;0.00;;
48401;SDS011;34201;52.438;16.744;2022-09-28T09:18:24;0.00;;;0.00;;
48401;SDS011;34201;52.438;16.744;2022-09-28T09:26:56;0.00;;;0.00;;
48401;SDS011;34201;52.438;16.744;2022-09-28T09:32:26;0.00;;;0.00;;
48401;SDS011;34201;52.438;16.744;2022-09-28T09:35:08;0.00;;;0.00;;
48401;SDS011;34201;52.438;16.744;2022-09-28T09:38:04;0.00;;;0.00;;
48401;SDS011;34201;52.438;16.744;2022-09-28T09:40:43;0.00;;;0.00;;
48401;SDS011;34201;52.438;16.744;2022-09-28T09:43:51;0.00;;;0.00;;
48401;SDS011;34201;52.438;16.744;2022-09-28T09:46:55;0.00;;;0.00;;
48401;SDS011;34201;52.438;16.744;2022-09-28T09:50:06;0.00;;;0.00;;
48401;SDS011;34201;52.438;16.744;2022-09-28T09:52:46;0.00;;;0.00;;
48401;SDS011;34201;52.438;16.744;2022-09-28T09:55:20;0.00;;;0.00;;
48401;SDS011;34201;52.438;16.744;2022-09-28T10:00:19;0.00;;;0.00;;
48401;SDS011;34201;52.438;16.744;2022-09-28T10:02:46;0.00;;;0.00;;
48401;SDS011;34201;52.438;16.744;2022-09-28T10:05:23;0.00;;;0.00;;
48401;SDS011;34201;52.438;16.744;2022-09-28T10:10:33;0.00;;;0.00;;
48401;SDS011;34201;52.438;16.744;2022-09-28T10:13:07;0.00;;;0.00;;
48401;SDS011;34201;52.438;16.744;2022-09-28T10:15:37;0.00;;;0.00;;
48401;SDS011;34201;52.438;16.744;2022-09-28T10:18:05;0.00;;;0.00;;
48401;SDS011;34201;52.438;16.744;2022-09-28T10:20:38;0.00;;;0.00;;
48401;SDS011;34201;52.438;16.744;2022-09-28T10:23:09;0.00;;;0.00;;
48401;SDS011;34201;52.438;16.744;2022-09-28T10:25:41;0.00;;;0.00;;
48401;SDS011;34201;52.438;16.744;2022-09-28T10:28:12;0.00;;;0.00;;
48401;SDS011;34201;52.438;16.744;2022-09-28T10:30:45;0.00;;;0.00;;
48401;SDS011;34201;52.438;16.744;2022-09-28T10:35:56;0.00;;;0.00;;
48401;SDS011;34201;52.438;16.744;2022-09-28T10:38:24;0.00;;;0.00;;
48401;SDS011;34201;52.438;16.744;2022-09-28T10:40:53;0.00;;;0.00;;
48401;SDS011;34201;52.438;16.744;2022-09-28T10:43:26;0.00;;;0.00;;
48401;SDS011;34201;52.438;16.744;2022-09-28T10:46:05;0.00;;;0.00;;
48401;SDS011;34201;52.438;16.744;2022-09-28T10:48:51;0.00;;;0.00;;
48401;SDS011;34201;52.438;16.744;2022-09-28T10:54:12;0.00;;;0.00;;
48401;SDS011;34201;52.438;16.744;2022-09-28T10:56:40;0.00;;;0.00;;
48401;SDS011;34201;52.438;16.744;2022-09-28T11:02:03;0.00;;;0.00;;
48401;SDS011;34201;52.438;16.744;2022-09-28T11:04:50;0.00;;;0.00;;
48401;SDS011;34201;52.438;16.744;2022-09-28T11:07:22;0.00;;;0.00;;
48401;SDS011;34201;52.438;16.744;2022-09-28T11:09:50;0.00;;;0.00;;
48401;SDS011;34201;52.438;16.744;2022-09-28T11:12:19;0.00;;;0.00;;
48401;SDS011;34201;52.438;16.744;2022-09-28T11:14:47;0.00;;;0.00;;
48401;SDS011;34201;52.438;16.744;2022-09-28T11:17:30;0.00;;;0.00;;
48401;SDS011;34201;52.438;16.744;2022-09-28T11:19:57;0.00;;;0.00;;
48401;SDS011;34201;52.438;16.744;2022-09-28T11:22:43;0.00;;;0.00;;
48401;SDS011;34201;52.438;16.744;2022-09-28T11:30:21;0.00;;;0.00;;
48401;SDS011;34201;52.438;16.744;2022-09-28T11:32:50;0.00;;;0.00;;
48401;SDS011;34201;52.438;16.744;2022-09-28T11:35:20;0.00;;;0.00;;
48401;SDS011;34201;52.438;16.744;2022-09-28T11:37:56;0.00;;;0.00;;
48401;SDS011;34201;52.438;16.744;2022-09-28T11:40:46;0.00;;;0.00;;
48401;SDS011;34201;52.438;16.744;2022-09-28T11:46:02;0.00;;;0.00;;
48401;SDS011;34201;52.438;16.744;2022-09-28T11:48:43;0.00;;;0.00;;
48401;SDS011;34201;52.438;16.744;2022-09-28T11:53:48;0.00;;;0.00;;
48401;SDS011;34201;52.438;16.744;2022-09-28T11:56:20;0.00;;;0.00;;
48401;SDS011;34201;52.438;16.744;2022-09-28T11:58:54;0.00;;;0.00;;
48401;SDS011;34201;52.438;16.744;2022-09-28T12:01:26;0.00;;;0.00;;
48401;SDS011;34201;52.438;16.744;2022-09-28T12:04:01;0.00;;;0.00;;
48401;SDS011;34201;52.438;16.744;2022-09-28T12:06:35;0.00;;;0.00;;
48401;SDS011;34201;52.438;16.744;2022-09-28T12:09:05;0.00;;;0.00;;
48401;SDS011;34201;52.438;16.744;2022-09-28T12:11:48;0.00;;;0.00;;
48401;SDS011;34201;52.438;16.744;2022-09-28T12:14:28;0.00;;;0.00;;
48401;SDS011;34201;52.438;16.744;2022-09-28T12:17:01;0.00;;;0.00;;
48401;SDS011;34201;52.438;16.744;2022-09-28T12:19:38;0.00;;;0.00;;
48401;SDS011;34201;52.438;16.744;2022-09-28T12:22:15;0.00;;;0.00;;
48401;SDS011;34201;52.438;16.744;2022-09-28T12:24:50;0.00;;;0.00;;
48401;SDS011;34201;52.438;16.744;2022-09-28T12:32:48;0.00;;;0.00;;
48401;SDS011;34201;52.438;16.744;2022-09-28T12:35:24;0.00;;;0.00;;
48401;SDS011;34201;52.438;16.744;2022-09-28T12:57:26;0.00;;;0.00;;
48401;SDS011;34201;52.438;16.744;2022-09-28T13:00:19;0.00;;;0.00;;
48401;SDS011;34201;52.438;16.744;2022-09-28T13:08:51;0.00;;;0.00;;
48401;SDS011;34201;52.438;16.744;2022-09-28T13:11:32;0.00;;;0.00;;
48401;SDS011;34201;52.438;16.744;2022-09-28T13:22:26;0.00;;;0.00;;
48401;SDS011;34201;52.438;16.744;2022-09-28T13:25:15;0.00;;;0.00;;
48401;SDS011;34201;52.438;16.744;2022-09-28T13:27:49;0.00;;;0.00;;
48401;SDS011;34201;52.438;16.744;2022-09-28T13:30:19;0.00;;;0.00;;
48401;SDS011;34201;52.438;16.744;2022-09-28T13:32:45;0.00;;;0.00;;
48401;SDS011;34201;52.438;16.744;2022-09-28T13:35:14;0.00;;;0.00;;
48401;SDS011;34201;52.438;16.744;2022-09-28T13:37:44;0.00;;;0.00;;
48401;SDS011;34201;52.438;16.744;2022-09-28T13:40:12;0.00;;;0.00;;
48401;SDS011;34201;52.438;16.744;2022-09-28T14:00:37;0.00;;;0.00;;
48401;SDS011;34201;52.438;16.744;2022-09-28T14:03:22;0.00;;;0.00;;
48401;SDS011;34201;52.438;16.744;2022-09-28T14:11:23;0.10;;;0.10;;
48401;SDS011;34201;52.438;16.744;2022-09-28T14:16:32;0.10;;;0.10;;
48401;SDS011;34201;52.438;16.744;2022-09-28T14:19:00;0.10;;;0.10;;
48401;SDS011;34201;52.438;16.744;2022-09-28T14:27:39;0.10;;;0.10;;
48401;SDS011;34201;52.438;16.744;2022-09-28T14:30:18;0.10;;;0.10;;
48401;SDS011;34201;52.438;16.744;2022-09-28T14:32:56;0.20;;;0.20;;
48401;SDS011;34201;52.438;16.744;2022-09-28T14:35:38;0.28;;;0.28;;
48401;SDS011;34201;52.438;16.744;2022-09-28T14:41:00;0.20;;;0.20;;
48401;SDS011;34201;52.438;16.744;2022-09-28T14:44:02;0.17;;;0.17;;
48401;SDS011;34201;52.438;16.744;2022-09-28T14:46:42;0.13;;;0.13;;
48401;SDS011;34201;52.438;16.744;2022-09-28T14:56:42;0.20;;;0.20;;
48401;SDS011;34201;52.438;16.744;2022-09-28T14:59:12;0.15;;;0.15;;
48401;SDS011;34201;52.438;16.744;2022-09-28T15:01:44;0.20;;;0.20;;
48401;SDS011;34201;52.438;16.744;2022-09-28T15:04:15;0.20;;;0.20;;
48401;SDS011;34201;52.438;16.744;2022-09-28T15:06:44;0.13;;;0.13;;
48401;SDS011;34201;52.438;16.744;2022-09-28T15:12:32;0.17;;;0.17;;
48401;SDS011;34201;52.438;16.744;2022-09-28T15:14:55;0.10;;;0.10;;
48401;SDS011;34201;52.438;16.744;2022-09-28T15:17:30;0.20;;;0.20;;
48401;SDS011;34201;52.438;16.744;2022-09-28T15:22:46;0.20;;;0.20;;
48401;SDS011;34201;52.438;16.744;2022-09-28T15:25:16;0.20;;;0.20;;
48401;SDS011;34201;52.438;16.744;2022-09-28T15:27:45;0.10;;;0.10;;
48401;SDS011;34201;52.438;16.744;2022-09-28T15:32:43;0.10;;;0.10;;
48401;SDS011;34201;52.438;16.744;2022-09-28T15:35:12;0.10;;;0.10;;
48401;SDS011;34201;52.438;16.744;2022-09-28T15:37:44;0.10;;;0.10;;
48401;SDS011;34201;52.438;16.744;2022-09-28T15:40:14;0.10;;;0.10;;
48401;SDS011;34201;52.438;16.744;2022-09-28T15:42:42;0.10;;;0.10;;
48401;SDS011;34201;52.438;16.744;2022-09-28T15:48:30;0.10;;;0.10;;
48401;SDS011;34201;52.438;16.744;2022-09-28T15:51:11;0.10;;;0.10;;
48401;SDS011;34201;52.438;16.744;2022-09-28T15:53:46;0.10;;;0.10;;
48401;SDS011;34201;52.438;16.744;2022-09-28T15:56:27;0.10;;;0.10;;
48401;SDS011;34201;52.438;16.744;2022-09-28T16:01:37;0.10;;;0.10;;
48401;SDS011;34201;52.438;16.744;2022-09-28T16:07:17;0.20;;;0.20;;
48401;SDS011;34201;52.438;16.744;2022-09-28T16:10:00;0.20;;;0.20;;
48401;SDS011;34201;52.438;16.744;2022-09-28T16:15:20;0.10;;;0.10;;
48401;SDS011;34201;52.438;16.744;2022-09-28T16:18:02;0.10;;;0.10;;
48401;SDS011;34201;52.438;16.744;2022-09-28T16:20:34;0.10;;;0.10;;
48401;SDS011;34201;52.438;16.744;2022-09-28T16:23:21;0.10;;;0.10;;
48401;SDS011;34201;52.438;16.744;2022-09-28T16:31:09;0.10;;;0.10;;
48401;SDS011;34201;52.438;16.744;2022-09-28T16:36:37;0.10;;;0.10;;
48401;SDS011;34201;52.438;16.744;2022-09-28T16:39:09;0.15;;;0.15;;
48401;SDS011;34201;52.438;16.744;2022-09-28T16:41:42;0.10;;;0.10;;
48401;SDS011;34201;52.438;16.744;2022-09-28T16:44:19;0.10;;;0.10;;
48401;SDS011;34201;52.438;16.744;2022-09-28T16:46:47;0.10;;;0.10;;
48401;SDS011;34201;52.438;16.744;2022-09-28T16:49:13;0.10;;;0.10;;
48401;SDS011;34201;52.438;16.744;2022-09-28T16:51:44;0.10;;;0.10;;
48401;SDS011;34201;52.438;16.744;2022-09-28T16:54:12;0.10;;;0.10;;
48401;SDS011;34201;52.438;16.744;2022-09-28T16:57:04;0.10;;;0.10;;
48401;SDS011;34201;52.438;16.744;2022-09-28T16:59:31;0.10;;;0.10;;
48401;SDS011;34201;52.438;16.744;2022-09-28T17:01:58;0.10;;;0.10;;
48401;SDS011;34201;52.438;16.744;2022-09-28T17:04:24;0.10;;;0.10;;
48401;SDS011;34201;52.438;16.744;2022-09-28T17:06:50;0.10;;;0.10;;
48401;SDS011;34201;52.438;16.744;2022-09-28T17:09:19;0.10;;;0.10;;
48401;SDS011;34201;52.438;16.744;2022-09-28T17:11:45;0.10;;;0.10;;
48401;SDS011;34201;52.438;16.744;2022-09-28T17:14:10;0.10;;;0.10;;
48401;SDS011;34201;52.438;16.744;2022-09-28T17:16:36;0.20;;;0.20;;
48401;SDS011;34201;52.438;16.744;2022-09-28T17:19:08;0.15;;;0.15;;
48401;SDS011;34201;52.438;16.744;2022-09-28T17:21:42;0.10;;;0.10;;
48401;SDS011;34201;52.438;16.744;2022-09-28T17:24:07;0.10;;;0.10;;
48401;SDS011;34201;52.438;16.744;2022-09-28T17:26:32;0.10;;;0.10;;
48401;SDS011;34201;52.438;16.744;2022-09-28T17:28:58;0.10;;;0.10;;
48401;SDS011;34201;52.438;16.744;2022-09-28T17:31:26;0.15;;;0.15;;
48401;SDS011;34201;52.438;16.744;2022-09-28T17:33:54;0.20;;;0.20;;
48401;SDS011;34201;52.438;16.744;2022-09-28T17:36:20;0.20;;;0.20;;
48401;SDS011;34201;52.438;16.744;2022-09-28T17:38:47;0.20;;;0.20;;
48401;SDS011;34201;52.438;16.744;2022-09-28T17:41:18;0.20;;;0.20;;
48401;SDS011;34201;52.438;16.744;2022-09-28T17:43:44;0.10;;;0.10;;
48401;SDS011;34201;52.438;16.744;2022-09-28T17:46:52;0.10;;;0.10;;
48401;SDS011;34201;52.438;16.744;2022-09-28T17:49:05;0.10;;;0.10;;
48401;SDS011;34201;52.438;16.744;2022-09-28T17:51:32;0.10;;;0.10;;
48401;SDS011;34201;52.438;16.744;2022-09-28T17:54:01;0.20;;;0.20;;
48401;SDS011;34201;52.438;16.744;2022-09-28T17:56:27;0.20;;;0.20;;
48401;SDS011;34201;52.438;16.744;2022-09-28T17:58:54;0.10;;;0.10;;
48401;SDS011;34201;52.438;16.744;2022-09-28T18:01:22;0.20;;;0.20;;
48401;SDS011;34201;52.438;16.744;2022-09-28T18:03:47;0.10;;;0.10;;
48401;SDS011;34201;52.438;16.744;2022-09-28T18:06:14;0.10;;;0.10;;
48401;SDS011;34201;52.438;16.744;2022-09-28T18:08:46;0.10;;;0.10;;
48401;SDS011;34201;52.438;16.744;2022-09-28T18:11:12;0.10;;;0.10;;
48401;SDS011;34201;52.438;16.744;2022-09-28T18:13:37;0.10;;;0.10;;
48401;SDS011;34201;52.438;16.744;2022-09-28T18:16:03;0.15;;;0.15;;